Time;durP1;ratioP1;P1;durP2;ratioP2;P2;SDS_P1;SDS_P2;PMS_P1;PMS_P2;Temp;Humidity;BMP_temperature;BMP_pressure;BME280_temperature;BME280_humidity;BME280_pressure;Samples;Min_cycle;Max_cycle;Signal;HPM_P1;HPM_P2
2023/12/18 00:01:23;;;;;;;;;;;;;;;12.75;83.13;102725.38;7294877;19;20046;-69
2023/12/18 00:03:49;;;;;;;;;;;;;;;12.74;83.26;102731.63;7308108;19;19915;-70
2023/12/18 00:06:16;;;;;;;;;;;;;;;12.71;83.08;102726.56;7276253;19;19929;-69
2023/12/18 00:08:43;;;;;;;;;;;;;;;12.68;82.86;102724.19;7291041;19;20568;-69
2023/12/18 00:11:10;;;;;;;;;;;;;;;12.67;83.88;102726.94;7285206;19;19946;-71
2023/12/18 00:13:37;;;;;;;;;;;;;;;12.69;84.16;102731.16;7282919;19;20011;-69
2023/12/18 00:16:04;;;;;;;;;;;;;;;12.68;83.29;102725.97;7281997;19;20244;-68
2023/12/18 00:18:31;;;;;;;;;;;;;;;12.71;82.72;102715.16;7275303;19;20823;-69
2023/12/18 00:20:59;;;;;;;;;;;;;;;12.67;83.05;102721.66;7281372;19;19930;-69
2023/12/18 00:23:26;;;;;;;;;;;;;;;12.65;83.65;102718.28;7284169;19;20935;-69
2023/12/18 00:25:55;;;;;;;;;;;;;;;12.65;84.20;102718.28;7286141;19;19919;-69
2023/12/18 00:28:22;;;;;;;;;;;;;;;12.67;83.76;102713.72;7273105;19;20577;-69
2023/12/18 00:30:49;;;;;;;;;;;;;;;12.68;83.83;102707.50;7278993;19;20006;-70
2023/12/18 00:33:16;;;;;;;;;;;;;;;12.65;83.45;102702.44;7293004;19;19926;-69
2023/12/18 00:35:43;;;;;;;;;;;;;;;12.61;83.53;102704.47;7294227;19;19917;-69
2023/12/18 00:38:10;;;;;;;;;;;;;;;12.64;85.45;102704.25;7291384;19;19919;-69
2023/12/18 00:40:37;;;;;;;;;;;;;;;12.63;84.67;102699.09;7309839;19;19914;-68
2023/12/18 00:43:04;;;;;;;;;;;;;;;12.60;83.29;102691.38;7288395;19;19927;-69
2023/12/18 00:45:31;;;;;;;;;;;;;;;12.58;83.48;102696.81;7281976;19;20248;-69
2023/12/18 00:47:58;;;;;;;;;;;;;;;12.54;83.17;102699.81;7286561;19;19935;-69
2023/12/18 00:50:25;;;;;;;;;;;;;;;12.53;83.91;102700.75;7275471;19;19918;-69
2023/12/18 00:52:53;;;;;;;;;;;;;;;12.54;83.89;102697.16;7278264;19;19943;-70
2023/12/18 00:55:20;;;;;;;;;;;;;;;12.50;84.18;102699.19;7279222;19;21822;-68
2023/12/18 00:57:47;;;;;;;;;;;;;;;12.54;84.25;102687.44;7287215;19;20233;-68
2023/12/18 01:00:19;;;;;;;;;;;;;;;12.55;83.92;102685.63;7291359;19;19918;-69
2023/12/18 01:02:49;;;;;;;;;;;;;;;12.55;84.23;102691.75;7301978;19;19915;-68
2023/12/18 01:05:16;;;;;;;;;;;;;;;12.57;84.93;102686.34;7295873;19;20340;-69
2023/12/18 01:07:43;;;;;;;;;;;;;;;12.57;84.45;102694.28;7294494;19;19915;-70
2023/12/18 01:10:08;;;;;;;;;;;;;;;12.58;84.50;102688.03;7296707;19;20034;-69
2023/12/18 01:12:35;;;;;;;;;;;;;;;12.58;84.07;102675.69;7287720;19;20226;-69
2023/12/18 01:15:03;;;;;;;;;;;;;;;12.59;84.30;102677.38;7282329;19;21501;-69
2023/12/18 01:17:30;;;;;;;;;;;;;;;12.61;84.38;102679.88;7287123;19;20292;-70
2023/12/18 01:20:03;;;;;;;;;;;;;;;12.60;84.37;102675.53;7271453;19;20113;-69
2023/12/18 01:22:30;;;;;;;;;;;;;;;12.61;84.49;102683.34;7288688;19;19930;-69
2023/12/18 01:24:57;;;;;;;;;;;;;;;12.62;84.23;102674.47;7281006;19;19946;-69
2023/12/18 01:27:24;;;;;;;;;;;;;;;12.60;84.12;102679.03;7293101;19;20131;-68
2023/12/18 01:29:53;;;;;;;;;;;;;;;12.59;83.80;102669.44;7297443;19;20327;-69
2023/12/18 01:32:22;;;;;;;;;;;;;;;12.54;83.79;102663.69;7297571;19;20118;-69
2023/12/18 01:34:49;;;;;;;;;;;;;;;12.52;84.59;102665.59;7302198;19;20295;-68
2023/12/18 01:37:21;;;;;;;;;;;;;;;12.53;84.49;102658.50;7296748;19;19919;-69
2023/12/18 01:39:48;;;;;;;;;;;;;;;12.52;84.48;102657.66;7280204;19;19919;-69
2023/12/18 01:42:14;;;;;;;;;;;;;;;12.49;84.24;102649.16;7282086;19;19930;-69
2023/12/18 01:44:41;;;;;;;;;;;;;;;12.46;84.32;102655.50;7279411;19;20359;-69
2023/12/18 01:47:11;;;;;;;;;;;;;;;12.43;85.14;102655.75;7293473;19;20255;-69
2023/12/18 01:49:38;;;;;;;;;;;;;;;12.43;84.99;102659.25;7276758;19;20014;-69
2023/12/18 01:52:05;;;;;;;;;;;;;;;12.41;84.81;102662.94;7285102;19;20553;-69
2023/12/18 01:54:32;;;;;;;;;;;;;;;12.37;85.03;102653.59;7294616;19;19949;-68
2023/12/18 01:57:00;;;;;;;;;;;;;;;12.37;84.87;102659.72;7312079;19;19933;-68
2023/12/18 01:59:27;;;;;;;;;;;;;;;12.34;85.81;102652.00;7295061;19;19918;-69
2023/12/18 02:01:53;;;;;;;;;;;;;;;12.37;86.53;102648.31;7287616;19;20810;-69
2023/12/18 02:04:20;;;;;;;;;;;;;;;12.39;86.05;102660.41;7310137;19;19973;-68
2023/12/18 02:06:48;;;;;;;;;;;;;;;12.40;85.76;102654.19;7304498;19;20344;-69
2023/12/18 02:09:15;;;;;;;;;;;;;;;12.37;85.88;102657.06;7289881;19;19927;-69
2023/12/18 02:11:43;;;;;;;;;;;;;;;12.38;85.92;102655.28;7292143;19;19979;-69
2023/12/18 02:14:11;;;;;;;;;;;;;;;12.33;85.41;102649.50;7291182;19;20117;-68
2023/12/18 02:16:38;;;;;;;;;;;;;;;12.25;85.63;102655.38;7283743;19;19994;-71
2023/12/18 02:19:04;;;;;;;;;;;;;;;12.21;86.08;102655.72;7287505;19;19922;-69
2023/12/18 02:21:32;;;;;;;;;;;;;;;12.21;85.97;102661.00;7284133;19;19950;-71
2023/12/18 02:23:58;;;;;;;;;;;;;;;12.19;86.40;102658.47;7296257;19;20779;-69
2023/12/18 02:26:26;;;;;;;;;;;;;;;12.24;86.96;102668.69;7279680;19;21291;-69
2023/12/18 02:28:53;;;;;;;;;;;;;;;12.27;86.47;102660.53;7278524;19;20668;-68
2023/12/18 02:31:21;;;;;;;;;;;;;;;12.28;86.64;102664.88;7278929;19;19927;-70
2023/12/18 02:33:50;;;;;;;;;;;;;;;12.30;86.12;102655.84;7294816;19;19922;-70
2023/12/18 02:36:17;;;;;;;;;;;;;;;12.34;86.34;102659.94;7292596;19;20578;-69
2023/12/18 02:38:44;;;;;;;;;;;;;;;12.37;86.22;102658.88;7290495;19;20745;-69
2023/12/18 02:41:11;;;;;;;;;;;;;;;12.40;85.93;102658.63;7288617;19;19923;-69
2023/12/18 02:43:38;;;;;;;;;;;;;;;12.42;85.96;102654.06;7287733;19;20002;-69
2023/12/18 02:46:05;;;;;;;;;;;;;;;12.42;85.82;102652.28;7304057;19;19930;-68
2023/12/18 02:48:32;;;;;;;;;;;;;;;12.43;85.73;102651.31;7298401;19;19978;-68
2023/12/18 02:50:59;;;;;;;;;;;;;;;12.41;86.24;102649.75;7300475;19;20243;-69
2023/12/18 02:53:26;;;;;;;;;;;;;;;12.39;85.37;102644.56;7309910;19;20647;-68
2023/12/18 02:55:53;;;;;;;;;;;;;;;12.40;85.63;102637.50;7313241;19;19929;-70
2023/12/18 02:58:22;;;;;;;;;;;;;;;12.39;85.71;102647.22;7298686;19;19971;-69
2023/12/18 03:00:49;;;;;;;;;;;;;;;12.39;85.77;102639.28;7290439;19;20677;-69
2023/12/18 03:03:16;;;;;;;;;;;;;;;12.40;86.18;102634.84;7286754;19;19930;-70
2023/12/18 03:05:45;;;;;;;;;;;;;;;12.40;86.85;102635.69;7298420;19;19919;-69
2023/12/18 03:08:12;;;;;;;;;;;;;;;12.39;86.21;102631.38;7293819;19;19995;-70
2023/12/18 03:10:39;;;;;;;;;;;;;;;12.36;86.08;102633.41;7290903;19;19915;-69
2023/12/18 03:13:06;;;;;;;;;;;;;;;12.37;85.93;102632.47;7282975;19;19998;-70
2023/12/18 03:15:33;;;;;;;;;;;;;;;12.36;86.30;102636.91;7279863;19;20903;-69
2023/12/18 03:18:00;;;;;;;;;;;;;;;12.34;86.47;102628.25;7285259;19;19934;-69
2023/12/18 03:20:27;;;;;;;;;;;;;;;12.35;86.72;102632.56;7300664;19;19915;-68
2023/12/18 03:22:54;;;;;;;;;;;;;;;12.40;86.89;102634.84;7297174;19;20091;-69
2023/12/18 03:25:21;;;;;;;;;;;;;;;12.41;86.76;102621.53;7302232;19;20522;-69
2023/12/18 03:27:48;;;;;;;;;;;;;;;12.40;86.36;102617.22;7294485;19;21688;-69
2023/12/18 03:30:15;;;;;;;;;;;;;;;12.41;86.67;102610.97;7285957;19;19915;-69
2023/12/18 03:32:44;;;;;;;;;;;;;;;12.39;86.65;102618.16;7296366;19;19918;-68
2023/12/18 03:35:11;;;;;;;;;;;;;;;12.43;86.35;102610.88;7287111;19;20525;-69
2023/12/18 03:37:38;;;;;;;;;;;;;;;12.46;86.52;102609.78;7296688;19;19994;-69
2023/12/18 03:40:06;;;;;;;;;;;;;;;12.46;86.67;102607.13;7288201;19;22567;-69
2023/12/18 03:42:35;;;;;;;;;;;;;;;12.44;87.00;102605.44;7295604;19;20010;-69
2023/12/18 03:45:02;;;;;;;;;;;;;;;12.43;86.31;102606.44;7282295;19;20161;-70
2023/12/18 03:47:30;;;;;;;;;;;;;;;12.43;86.64;102608.22;7289284;19;19914;-69
2023/12/18 03:49:57;;;;;;;;;;;;;;;12.46;86.00;102596.56;7276823;19;19979;-69
2023/12/18 03:52:24;;;;;;;;;;;;;;;12.48;86.79;102594.66;7284792;19;19918;-69
2023/12/18 03:54:50;;;;;;;;;;;;;;;12.44;86.03;102599.34;7287334;19;19911;-68
2023/12/18 03:57:17;;;;;;;;;;;;;;;12.45;86.03;102601.00;7288379;19;20003;-70
2023/12/18 03:59:44;;;;;;;;;;;;;;;12.44;85.96;102604.63;7278743;19;19945;-69
2023/12/18 04:02:11;;;;;;;;;;;;;;;12.44;86.38;102608.09;7298913;19;19986;-69
2023/12/18 04:04:38;;;;;;;;;;;;;;;12.46;86.64;102600.06;7284603;19;19942;-68
2023/12/18 04:07:05;;;;;;;;;;;;;;;12.45;85.74;102595.72;7289603;19;19915;-69
2023/12/18 04:09:32;;;;;;;;;;;;;;;12.46;85.59;102592.13;7306992;19;20002;-69
2023/12/18 04:11:59;;;;;;;;;;;;;;;12.45;85.74;102587.81;7280763;19;19922;-70
2023/12/18 04:14:26;;;;;;;;;;;;;;;12.45;85.80;102587.81;7295368;19;19943;-68
2023/12/18 04:16:52;;;;;;;;;;;;;;;12.46;86.54;102581.56;7276095;19;19960;-70
2023/12/18 04:19:19;;;;;;;;;;;;;;;12.48;86.18;102584.09;7283772;19;20260;-70
2023/12/18 04:21:47;;;;;;;;;;;;;;;12.47;85.23;102585.06;7288246;19;19926;-68
2023/12/18 04:24:14;;;;;;;;;;;;;;;12.47;85.34;102579.78;7294371;19;20566;-69
2023/12/18 04:26:44;;;;;;;;;;;;;;;12.46;85.44;102578.94;7285164;19;21024;-69
2023/12/18 04:29:11;;;;;;;;;;;;;;;12.48;85.67;102578.81;7278333;19;19923;-69
2023/12/18 04:31:38;;;;;;;;;;;;;;;12.52;85.27;102580.25;7272318;19;20567;-69
2023/12/18 04:34:05;;;;;;;;;;;;;;;12.48;85.30;102573.53;7292732;19;19929;-68
2023/12/18 04:36:36;;;;;;;;;;;;;;;12.48;84.99;102577.03;7287636;19;22247;-70
2023/12/18 04:39:03;;;;;;;;;;;;;;;12.50;86.34;102574.25;7285549;19;19929;-70
2023/12/18 04:41:30;;;;;;;;;;;;;;;12.50;85.53;102568.97;7281030;19;19937;-68
2023/12/18 04:43:57;;;;;;;;;;;;;;;12.49;85.64;102577.88;7274958;19;19915;-70
2023/12/18 04:46:26;;;;;;;;;;;;;;;12.49;85.72;102580.50;7284258;19;19915;-68
2023/12/18 04:48:53;;;;;;;;;;;;;;;12.49;85.69;102578.72;7281598;19;20284;-69
2023/12/18 04:51:22;;;;;;;;;;;;;;;12.49;85.60;102572.59;7272804;19;19915;-68
2023/12/18 04:53:49;;;;;;;;;;;;;;;12.50;85.08;102571.59;7282746;19;20180;-70
2023/12/18 04:56:16;;;;;;;;;;;;;;;12.46;84.38;102572.81;7302152;19;19922;-70
2023/12/18 04:58:43;;;;;;;;;;;;;;;12.41;84.91;102566.09;7287086;19;20783;-69
2023/12/18 05:01:10;;;;;;;;;;;;;;;12.40;85.34;102566.22;7276713;19;19914;-69
2023/12/18 05:03:37;;;;;;;;;;;;;;;12.40;85.99;102561.78;7287812;19;19918;-69
2023/12/18 05:06:09;;;;;;;;;;;;;;;12.45;85.67;102561.41;7283839;19;19923;-69
2023/12/18 05:08:38;;;;;;;;;;;;;;;12.46;85.20;102557.81;7286470;19;20292;-69
2023/12/18 05:11:05;;;;;;;;;;;;;;;12.49;84.93;102564.66;7284454;19;19921;-68
2023/12/18 05:13:32;;;;;;;;;;;;;;;12.53;85.98;102563.47;7293772;19;19923;-69
2023/12/18 05:15:59;;;;;;;;;;;;;;;12.55;85.80;102566.78;7277055;19;19982;-69
2023/12/18 05:18:26;;;;;;;;;;;;;;;12.53;85.32;102566.09;7280645;19;20563;-69
2023/12/18 05:20:57;;;;;;;;;;;;;;;12.52;84.86;102559.13;7295985;19;19948;-69
2023/12/18 05:23:24;;;;;;;;;;;;;;;12.50;85.63;102556.59;7306022;19;19923;-71
2023/12/18 05:25:51;;;;;;;;;;;;;;;12.52;85.94;102564.41;7290701;19;19945;-69
2023/12/18 05:28:18;;;;;;;;;;;;;;;12.53;85.38;102566.94;7280490;19;20280;-69
2023/12/18 05:30:45;;;;;;;;;;;;;;;12.50;85.25;102566.31;7277420;19;21997;-70
2023/12/18 05:33:12;;;;;;;;;;;;;;;12.43;85.13;102564.19;7286782;19;20271;-68
2023/12/18 05:35:39;;;;;;;;;;;;;;;12.44;86.02;102570.31;7292972;19;20609;-69
2023/12/18 05:38:07;;;;;;;;;;;;;;;12.43;85.88;102563.34;7279768;19;20577;-69
2023/12/18 05:40:35;;;;;;;;;;;;;;;12.40;85.09;102568.84;7301289;19;19934;-68
2023/12/18 05:43:02;;;;;;;;;;;;;;;12.40;85.43;102564.41;7286315;19;20439;-69
2023/12/18 05:45:29;;;;;;;;;;;;;;;12.40;85.33;102560.94;7288381;19;22374;-68
2023/12/18 05:47:55;;;;;;;;;;;;;;;12.37;85.36;102558.56;7282583;19;19930;-69
2023/12/18 05:50:23;;;;;;;;;;;;;;;12.40;86.03;102560.94;7295602;19;19923;-70
2023/12/18 05:52:49;;;;;;;;;;;;;;;12.40;85.28;102559.13;7299624;19;19923;-70
2023/12/18 05:55:16;;;;;;;;;;;;;;;12.43;85.86;102563.34;7279301;19;19915;-69
2023/12/18 05:57:43;;;;;;;;;;;;;;;12.40;85.20;102564.41;7298608;19;20105;-69
2023/12/18 06:00:11;;;;;;;;;;;;;;;12.38;85.40;102576.06;7277088;19;20264;-69
2023/12/18 06:02:38;;;;;;;;;;;;;;;12.38;86.29;102576.06;7277933;19;20553;-68
2023/12/18 06:05:05;;;;;;;;;;;;;;;12.40;86.17;102567.06;7284612;19;20302;-68
2023/12/18 06:07:32;;;;;;;;;;;;;;;12.40;85.80;102576.78;7279976;19;21027;-69
2023/12/18 06:09:59;;;;;;;;;;;;;;;12.41;86.99;102575.81;7278507;19;19923;-69
2023/12/18 06:12:26;;;;;;;;;;;;;;;12.38;86.54;102569.00;7299439;19;19915;-69
2023/12/18 06:14:53;;;;;;;;;;;;;;;12.36;86.17;102570.91;7308383;19;19926;-70
2023/12/18 06:17:20;;;;;;;;;;;;;;;12.33;85.68;102568.53;7306192;19;20278;-68
2023/12/18 06:19:47;;;;;;;;;;;;;;;12.29;85.53;102564.44;7307709;19;19919;-70
2023/12/18 06:22:14;;;;;;;;;;;;;;;12.30;86.45;102565.25;7277253;19;19914;-69
2023/12/18 06:24:41;;;;;;;;;;;;;;;12.28;86.30;102565.41;7275875;19;19994;-69
2023/12/18 06:27:08;;;;;;;;;;;;;;;12.29;86.22;102559.16;7274967;19;20566;-69
2023/12/18 06:29:35;;;;;;;;;;;;;;;12.29;86.13;102558.34;7274500;19;20305;-69
2023/12/18 06:32:02;;;;;;;;;;;;;;;12.29;86.24;102561.78;7275762;19;19911;-68
2023/12/18 06:34:29;;;;;;;;;;;;;;;12.25;85.98;102560.34;7273558;19;21083;-69
2023/12/18 06:36:56;;;;;;;;;;;;;;;12.26;86.36;102555.91;7278006;19;20006;-69
2023/12/18 06:39:23;;;;;;;;;;;;;;;12.23;86.04;102567.56;7285329;19;19986;-69
2023/12/18 06:41:50;;;;;;;;;;;;;;;12.24;85.78;102563.94;7288560;19;19998;-69
2023/12/18 06:44:17;;;;;;;;;;;;;;;12.26;86.22;102561.19;7278601;19;19922;-69
2023/12/18 06:46:44;;;;;;;;;;;;;;;12.27;85.77;102569.00;7269171;19;19926;-69
2023/12/18 06:49:11;;;;;;;;;;;;;;;12.24;85.88;102565.78;7281755;19;19923;-68
2023/12/18 06:51:38;;;;;;;;;;;;;;;12.26;85.88;102566.47;7298848;19;19927;-69
2023/12/18 06:54:05;;;;;;;;;;;;;;;12.24;85.75;102569.22;7288613;19;20342;-69
2023/12/18 06:56:32;;;;;;;;;;;;;;;12.26;86.38;102566.47;7278153;19;20424;-69
2023/12/18 06:59:02;;;;;;;;;;;;;;;12.32;86.34;102573.91;7289129;19;19923;-69
2023/12/18 07:01:28;;;;;;;;;;;;;;;12.31;85.84;102570.44;7285282;19;20492;-68
2023/12/18 07:03:56;;;;;;;;;;;;;;;12.30;85.70;102568.75;7289401;19;19930;-68
2023/12/18 07:06:24;;;;;;;;;;;;;;;12.31;85.62;102573.06;7280135;19;20208;-67
2023/12/18 07:08:51;;;;;;;;;;;;;;;12.31;85.32;102581.00;7295257;19;19921;-69
2023/12/18 07:11:18;;;;;;;;;;;;;;;12.31;85.28;102573.06;7291300;19;19979;-69
2023/12/18 07:13:45;;;;;;;;;;;;;;;12.30;85.23;102571.38;7292702;19;19918;-69
2023/12/18 07:16:14;;;;;;;;;;;;;;;12.28;85.69;102575.13;7293803;19;19945;-70
2023/12/18 07:18:41;;;;;;;;;;;;;;;12.26;85.36;102562.03;7304976;19;19929;-69
2023/12/18 07:21:08;;;;;;;;;;;;;;;12.23;85.82;102569.38;7316725;19;19996;-69
2023/12/18 07:23:36;;;;;;;;;;;;;;;12.23;85.55;102572.84;7310189;19;19938;-68
2023/12/18 07:26:05;;;;;;;;;;;;;;;12.27;85.73;102576.06;7289272;19;20181;-69
2023/12/18 07:28:32;;;;;;;;;;;;;;;12.22;85.88;102568.53;7309196;19;20218;-69
2023/12/18 07:30:59;;;;;;;;;;;;;;;12.24;86.21;102574.50;7305883;19;19927;-69
2023/12/18 07:33:26;;;;;;;;;;;;;;;12.27;85.87;102582.19;7308120;19;20460;-69
2023/12/18 07:35:53;;;;;;;;;;;;;;;12.28;85.39;102569.84;7292309;19;22116;-69
2023/12/18 07:38:20;;;;;;;;;;;;;;;12.29;84.73;102572.34;7287097;19;19923;-70
2023/12/18 07:40:48;;;;;;;;;;;;;;;12.32;85.20;102581.84;7296660;19;19946;-68
2023/12/18 07:43:15;;;;;;;;;;;;;;;12.31;85.20;102561.66;7300605;19;19982;-70
2023/12/18 07:45:42;;;;;;;;;;;;;;;12.33;84.58;102562.41;7274155;19;20790;-70
2023/12/18 07:48:09;;;;;;;;;;;;;;;12.35;84.71;102565.75;7287318;19;19922;-69
2023/12/18 07:50:37;;;;;;;;;;;;;;;12.37;84.70;102558.56;7292869;19;19919;-70
2023/12/18 07:53:04;;;;;;;;;;;;;;;12.43;85.40;102558.06;7288056;19;20264;-69
2023/12/18 07:55:32;;;;;;;;;;;;;;;12.44;84.74;102565.84;7297667;19;20005;-69
2023/12/18 07:57:59;;;;;;;;;;;;;;;12.51;84.82;102560.94;7298233;19;22219;-69
2023/12/18 08:00:26;;;;;;;;;;;;;;;12.54;84.30;102550.13;7299027;19;19957;-70
2023/12/18 08:02:55;;;;;;;;;;;;;;;12.56;84.05;102547.34;7294439;19;20426;-68
2023/12/18 08:05:23;;;;;;;;;;;;;;;12.59;84.58;102552.41;7289964;19;20564;-68
2023/12/18 08:07:53;;;;;;;;;;;;;;;12.61;84.58;102550.47;7306810;19;19914;-68
2023/12/18 08:10:21;;;;;;;;;;;;;;;12.61;83.51;102553.94;7312832;19;19927;-69
2023/12/18 08:12:48;;;;;;;;;;;;;;;12.57;83.49;102546.41;7296000;19;19950;-69
2023/12/18 08:15:16;;;;;;;;;;;;;;;12.58;84.11;102546.28;7302049;19;19911;-69
2023/12/18 08:17:43;;;;;;;;;;;;;;;12.58;84.25;102537.53;7280721;19;19907;-70
2023/12/18 08:20:11;;;;;;;;;;;;;;;12.59;84.01;102555.91;7288754;19;20395;-69
2023/12/18 08:22:38;;;;;;;;;;;;;;;12.57;83.61;102541.13;7288021;19;19918;-69
2023/12/18 08:25:06;;;;;;;;;;;;;;;12.58;84.04;102534.88;7287572;19;20258;-69
2023/12/18 08:27:34;;;;;;;;;;;;;;;12.56;84.75;102537.63;7284770;19;22420;-69
2023/12/18 08:29:59;;;;;;;;;;;;;;;12.56;85.02;102539.44;7289244;19;19930;-70
2023/12/18 08:32:27;;;;;;;;;;;;;;;12.58;84.89;102530.44;7273310;19;20038;-69
2023/12/18 08:34:54;;;;;;;;;;;;;;;12.63;85.18;102535.34;7284499;19;20002;-68
2023/12/18 08:37:21;;;;;;;;;;;;;;;12.64;84.91;102544.97;7281474;19;19911;-68
2023/12/18 08:39:49;;;;;;;;;;;;;;;12.66;85.56;102545.66;7282224;19;20013;-69
2023/12/18 08:42:18;;;;;;;;;;;;;;;12.70;85.28;102547.06;7288092;19;20400;-70
2023/12/18 08:44:46;;;;;;;;;;;;;;;12.74;85.27;102543.25;7292750;19;19923;-70
2023/12/18 08:47:11;;;;;;;;;;;;;;;12.78;84.62;102542.03;7295145;19;19929;-69
2023/12/18 08:49:38;;;;;;;;;;;;;;;12.83;85.43;102540.69;7277882;19;20084;-69
2023/12/18 08:52:07;;;;;;;;;;;;;;;12.85;85.02;102551.97;7281086;19;20443;-70
2023/12/18 08:54:35;;;;;;;;;;;;;;;12.88;84.16;102553.53;7285595;19;19934;-68
2023/12/18 08:57:03;;;;;;;;;;;;;;;12.82;83.83;102560.16;7286161;19;19919;-69
2023/12/18 08:59:30;;;;;;;;;;;;;;;12.81;83.87;102554.97;7293919;19;20854;-69
2023/12/18 09:04:25;;;;;;;;;;;;;;;12.84;84.38;102560.88;7303099;19;19949;-68
2023/12/18 09:06:59;;;;;;;;;;;;;;;12.90;84.13;102556.88;7312800;19;19990;-69
2023/12/18 09:09:26;;;;;;;;;;;;;;;12.88;83.27;102555.31;7282269;19;19934;-69
2023/12/18 09:11:54;;;;;;;;;;;;;;;12.88;83.72;102566.75;7296744;19;19951;-69
2023/12/18 09:14:35;;;;;;;;;;;;;;;12.91;83.65;102557.72;7279718;19;19926;-69
2023/12/18 09:17:03;;;;;;;;;;;;;;;12.91;83.71;102563.00;7285039;19;19914;-69
2023/12/18 09:19:31;;;;;;;;;;;;;;;12.89;84.47;102559.66;7276636;19;19911;-69
2023/12/18 09:21:59;;;;;;;;;;;;;;;12.95;83.99;102556.53;7293639;19;19925;-69
2023/12/18 09:24:28;;;;;;;;;;;;;;;12.99;84.54;102566.72;7307411;19;20672;-69
2023/12/18 09:26:57;;;;;;;;;;;;;;;12.98;83.65;102559.75;7308769;19;19915;-68
2023/12/18 09:29:24;;;;;;;;;;;;;;;12.99;83.45;102558.78;7308896;19;19961;-70
2023/12/18 09:31:52;;;;;;;;;;;;;;;13.02;83.71;102560.31;7307045;19;20545;-69
2023/12/18 09:34:19;;;;;;;;;;;;;;;13.01;83.20;102551.53;7308393;19;20515;-70
2023/12/18 09:36:46;;;;;;;;;;;;;;;13.01;83.48;102559.47;7309453;19;19930;-69
2023/12/18 09:39:14;;;;;;;;;;;;;;;13.04;83.24;102546.03;7294878;19;19918;-69
2023/12/18 09:41:41;;;;;;;;;;;;;;;13.07;83.51;102539.63;7267699;19;19922;-69
2023/12/18 09:44:08;;;;;;;;;;;;;;;13.03;83.09;102541.69;7271163;19;20099;-69
2023/12/18 09:46:36;;;;;;;;;;;;;;;13.08;83.67;102525.47;7278768;19;21237;-69
2023/12/18 09:49:05;;;;;;;;;;;;;;;13.09;83.80;102530.63;7281305;19;19919;-69
2023/12/18 09:51:36;;;;;;;;;;;;;;;13.13;83.20;102520.66;7282298;19;19925;-69
2023/12/18 09:56:31;;;;;;;;;;;;;;;13.24;83.08;102529.38;7292344;19;20002;-69
2023/12/18 09:59:00;;;;;;;;;;;;;;;13.27;81.98;102518.56;7286654;19;20295;-70
2023/12/18 10:01:28;;;;;;;;;;;;;;;13.29;82.25;102536.94;7279515;19;19922;-70
2023/12/18 10:03:56;;;;;;;;;;;;;;;13.32;81.58;102527.91;7283615;19;19914;-69
2023/12/18 10:06:26;;;;;;;;;;;;;;;13.34;81.43;102531.25;7281280;19;20236;-69
2023/12/18 10:08:54;;;;;;;;;;;;;;;13.31;81.84;102529.69;7283474;19;20107;-69
2023/12/18 10:11:24;;;;;;;;;;;;;;;13.33;82.23;102534.88;7294645;19;19925;-68
2023/12/18 10:13:55;;;;;;;;;;;;;;;13.35;82.13;102525.84;7284045;19;19929;-69
2023/12/18 10:16:21;;;;;;;;;;;;;;;13.33;81.14;102516.34;7280498;19;19945;-70
2023/12/18 10:18:49;;;;;;;;;;;;;;;13.32;82.21;102531.38;7277265;19;19922;-69
2023/12/18 10:21:23;;;;;;;;;;;;;;;13.32;82.28;102543.75;7283151;19;19918;-69
2023/12/18 10:23:52;;;;;;;;;;;;;;;13.30;82.99;102545.72;7282952;19;20467;-70
2023/12/18 10:26:20;;;;;;;;;;;;;;;13.30;82.77;102525.41;7289490;19;19911;-69
2023/12/18 10:28:49;;;;;;;;;;;;;;;13.35;82.59;102522.38;7275178;19;19919;-68
2023/12/18 10:31:16;;;;;;;;;;;;;;;13.36;82.42;102513.47;7281506;19;19957;-68
2023/12/18 10:33:44;;;;;;;;;;;;;;;13.28;81.60;102507.00;7289175;19;23189;-69
2023/12/18 10:36:14;;;;;;;;;;;;;;;13.33;81.51;102508.44;7285726;19;19954;-68
2023/12/18 10:38:47;;;;;;;;;;;;;;;13.35;81.78;102510.00;7275458;19;19923;-69
2023/12/18 10:41:17;;;;;;;;;;;;;;;13.36;82.09;102509.00;7280023;19;19933;-69
2023/12/18 10:43:46;;;;;;;;;;;;;;;13.42;81.30;102505.84;7282584;19;19915;-70
2023/12/18 10:46:12;;;;;;;;;;;;;;;13.45;81.38;102502.13;7287083;19;20354;-69
2023/12/18 10:48:41;;;;;;;;;;;;;;;13.47;80.70;102498.34;7283948;19;19953;-69
2023/12/18 10:51:10;;;;;;;;;;;;;;;13.49;80.93;102480.56;7290687;19;19927;-69
2023/12/18 10:53:38;;;;;;;;;;;;;;;13.52;80.81;102471.50;7282599;19;19911;-69
2023/12/18 10:56:07;;;;;;;;;;;;;;;13.53;80.79;102481.13;7278023;19;20401;-69
2023/12/18 10:58:39;;;;;;;;;;;;;;;13.55;80.47;102477.41;7282528;19;19918;-69
2023/12/18 11:01:09;;;;;;;;;;;;;;;13.56;81.05;102472.94;7285441;19;19951;-72
2023/12/18 11:03:37;;;;;;;;;;;;;;;13.56;80.50;102459.72;7289151;19;19933;-70
2023/12/18 11:06:05;;;;;;;;;;;;;;;13.57;80.79;102461.38;7280945;19;19914;-69
2023/12/18 11:08:36;;;;;;;;;;;;;;;13.57;80.59;102464.03;7293547;19;19923;-70
2023/12/18 11:11:05;;;;;;;;;;;;;;;13.53;80.00;102449.41;7288097;19;19919;-69
2023/12/18 11:13:40;;;;;;;;;;;;;;;13.51;80.41;102449.53;7286994;19;20644;-69
2023/12/18 11:16:08;;;;;;;;;;;;;;;13.53;80.72;102452.03;7272797;19;19919;-69
2023/12/18 11:18:39;;;;;;;;;;;;;;;13.57;81.55;102459.56;7293485;19;20211;-68
2023/12/18 11:21:07;;;;;;;;;;;;;;;13.54;81.50;102441.34;7300971;19;19922;-69
2023/12/18 11:23:39;;;;;;;;;;;;;;;13.57;80.56;102437.56;7301962;19;19941;-69
2023/12/18 11:26:09;;;;;;;;;;;;;;;13.56;80.33;102430.63;7280808;19;19919;-69
2023/12/18 11:28:37;;;;;;;;;;;;;;;13.54;80.69;102430.75;7288887;19;19929;-70
2023/12/18 11:31:08;;;;;;;;;;;;;;;13.52;80.27;102426.56;7276946;19;19961;-67
2023/12/18 11:33:35;;;;;;;;;;;;;;;13.56;80.92;102430.63;7289745;19;20759;-69
2023/12/18 11:36:17;;;;;;;;;;;;;;;13.58;80.99;102441.91;7295520;19;20399;-68
2023/12/18 11:38:44;;;;;;;;;;;;;;;13.57;80.69;102435.78;7296606;19;19915;-70
2023/12/18 11:41:31;;;;;;;;;;;;;;;13.61;80.38;102437.19;7290565;19;19923;-69
2023/12/18 11:44:06;;;;;;;;;;;;;;;13.62;81.34;102438.00;7302902;19;20252;-69
2023/12/18 11:46:33;;;;;;;;;;;;;;;13.67;80.49;102418.13;7301014;19;19918;-69
2023/12/18 11:49:02;;;;;;;;;;;;;;;13.74;80.29;102422.91;7294743;19;20649;-67
2023/12/18 11:51:30;;;;;;;;;;;;;;;13.78;80.51;102419.84;7286274;19;20239;-68
2023/12/18 11:53:58;;;;;;;;;;;;;;;13.86;79.95;102424.47;7291288;19;20272;-68
2023/12/18 11:56:27;;;;;;;;;;;;;;;13.90;79.48;102420.59;7286685;19;20534;-68
2023/12/18 11:58:56;;;;;;;;;;;;;;;13.89;79.61;102418.91;7291163;19;20031;-69
2023/12/18 12:01:23;;;;;;;;;;;;;;;13.90;79.71;102410.00;7283321;19;19951;-69
2023/12/18 12:03:52;;;;;;;;;;;;;;;13.92;79.74;102408.88;7288042;19;19926;-68
2023/12/18 12:06:20;;;;;;;;;;;;;;;13.92;79.71;102408.03;7280858;19;19971;-69
2023/12/18 12:08:49;;;;;;;;;;;;;;;13.94;80.20;102399.00;7286141;19;19999;-68
2023/12/18 12:11:17;;;;;;;;;;;;;;;13.98;79.77;102400.41;7293307;19;19926;-69
2023/12/18 12:13:45;;;;;;;;;;;;;;;13.94;79.49;102399.00;7293209;19;20708;-68
2023/12/18 12:16:17;;;;;;;;;;;;;;;13.89;79.42;102381.88;7298562;19;22045;-68
2023/12/18 12:18:46;;;;;;;;;;;;;;;13.91;80.83;102364.88;7296951;19;19941;-69
2023/12/18 12:21:17;;;;;;;;;;;;;;;13.94;80.26;102358.47;7277191;19;20568;-69
2023/12/18 12:23:47;;;;;;;;;;;;;;;13.98;80.31;102373.09;7280425;19;20629;-68
2023/12/18 12:26:22;;;;;;;;;;;;;;;13.94;79.72;102367.25;7288577;19;19915;-69
2023/12/18 12:28:51;;;;;;;;;;;;;;;13.94;79.67;102366.41;7292130;19;19974;-69
2023/12/18 12:31:19;;;;;;;;;;;;;;;13.94;80.68;102367.25;7277202;19;19934;-69
2023/12/18 12:33:48;;;;;;;;;;;;;;;13.92;80.08;102355.13;7285762;19;19998;-70
2023/12/18 12:36:20;;;;;;;;;;;;;;;13.97;80.51;102358.19;7293395;19;21311;-69
2023/12/18 12:39:04;;;;;;;;;;;;;;;13.92;79.75;102355.13;7296568;19;20002;-69
2023/12/18 12:41:32;;;;;;;;;;;;;;;13.86;80.65;102360.97;7295998;19;19930;-69
2023/12/18 12:43:59;;;;;;;;;;;;;;;13.86;81.11;102353.88;7284615;19;20649;-69